X  Κλείσε Στοιχεία αεροπορικών μετεωρολογικών δεδομένων METAR        LGTS Thessaloniki Macedonia International
θερμοκρασία
1°C θερμοκρασία
-5°C Σημείο δρόσου
64% Υγρασία



Ανεμος
6 KM/H
3 MPH
1 M/S
3 KTS



-1°
VRB
Τρέχουσες συνθήκες

Mostly Clear Σχεδόν ξεκάθαρα
πίεση 1019 (hPa) - 30.09 (inHg)
Ορατότητα 6 (μίλι) - 10 (km)
Aεροδρόμιο
Κωδικός αεροδρομίου LGTS

Τοποθεσία: Thessaloniki Macedonia International
Απόσταση: 85 (km)

Metar:
METAR LGTS 032250Z VRB03KT CAVOK 01/M05 Q1019 NOSIG

ώρα: 04-02-2023 00:50 EET